createdAt,value
2018-05-18T00:00:49.645Z,5.77
2018-05-18T00:03:17.110Z,5.43
2018-05-18T00:05:44.578Z,5.77
2018-05-18T00:08:12.039Z,5.63
2018-05-18T00:10:39.528Z,5.70
2018-05-18T00:13:06.994Z,5.30
2018-05-18T00:15:35.234Z,5.70
2018-05-18T00:18:02.706Z,5.13
2018-05-18T00:20:30.190Z,5.33
2018-05-18T00:22:57.694Z,6.17
2018-05-18T00:25:25.170Z,5.73
2018-05-18T00:27:52.644Z,5.50
2018-05-18T00:30:20.112Z,5.63
2018-05-18T00:32:47.593Z,5.50
2018-05-18T00:35:15.082Z,5.87
2018-05-18T00:37:42.550Z,6.10
2018-05-18T00:40:10.778Z,5.90
2018-05-18T00:42:38.251Z,6.00
2018-05-18T00:45:06.491Z,5.47
2018-05-18T00:47:34.738Z,6.07
2018-05-18T00:50:02.215Z,5.77
2018-05-18T00:52:29.678Z,6.30
2018-05-18T00:54:57.150Z,5.80
2018-05-18T00:57:25.380Z,6.50
2018-05-18T00:59:52.884Z,6.03
2018-05-18T01:02:20.350Z,5.17
2018-05-18T01:04:47.832Z,6.17
2018-05-18T01:07:16.070Z,6.13
2018-05-18T01:09:43.544Z,6.23
2018-05-18T01:12:11.028Z,5.87
2018-05-18T01:14:39.267Z,6.20
2018-05-18T01:17:06.730Z,6.67
2018-05-18T01:19:34.200Z,6.37
2018-05-18T01:22:01.661Z,6.20
2018-05-18T01:24:29.142Z,6.13
2018-05-18T01:26:56.631Z,7.47
2018-05-18T01:29:24.877Z,7.17
2018-05-18T01:31:52.336Z,6.27
2018-05-18T01:34:19.812Z,6.53
2018-05-18T01:36:47.314Z,7.60
2018-05-18T01:39:15.548Z,7.20
2018-05-18T01:41:43.018Z,6.67
2018-05-18T01:44:11.240Z,6.97
2018-05-18T01:46:39.474Z,7.57
2018-05-18T01:49:07.738Z,8.30
2018-05-18T01:51:35.214Z,7.47
2018-05-18T01:54:02.680Z,7.37
2018-05-18T01:56:30.147Z,6.77
2018-05-18T01:58:57.606Z,7.70
2018-05-18T02:01:25.104Z,8.50
2018-05-18T02:03:52.570Z,8.50
2018-05-18T02:06:20.039Z,8.10
2018-05-18T02:08:48.284Z,8.30
2018-05-18T02:11:15.774Z,8.43
2018-05-18T02:13:43.248Z,8.40
2018-05-18T02:16:10.709Z,8.03
2018-05-18T02:18:38.182Z,7.63
2018-05-18T02:21:06.428Z,7.70
2018-05-18T02:23:33.901Z,7.93
2018-05-18T02:26:01.401Z,7.80
2018-05-18T02:28:29.634Z,8.70
2018-05-18T02:30:57.105Z,8.90
2018-05-18T02:33:24.573Z,7.87
2018-05-18T02:35:52.035Z,8.13
2018-05-18T02:38:19.513Z,8.40
2018-05-18T02:40:46.987Z,9.10
2018-05-18T02:43:15.223Z,9.10
2018-05-18T02:45:42.707Z,10.27
2018-05-18T02:48:10.179Z,9.83
2018-05-18T02:50:37.662Z,10.97
2018-05-18T02:53:05.889Z,9.80
2018-05-18T02:55:33.368Z,11.57
2018-05-18T02:58:00.846Z,9.80
2018-05-18T03:00:28.319Z,10.03
2018-05-18T03:02:55.814Z,9.73
2018-05-18T03:05:23.283Z,10.60
2018-05-18T03:07:50.759Z,10.57
2018-05-18T03:10:18.226Z,9.63
2018-05-18T03:12:45.696Z,9.23
2018-05-18T03:15:13.195Z,10.40
2018-05-18T03:17:40.662Z,9.73
2018-05-18T03:20:08.126Z,9.47
2018-05-18T03:22:35.602Z,9.57
2018-05-18T03:25:03.850Z,10.47
2018-05-18T03:27:31.405Z,9.03
2018-05-18T03:29:58.810Z,9.13
2018-05-18T03:32:27.046Z,11.00
2018-05-18T03:34:54.521Z,9.80
2018-05-18T03:37:21.980Z,10.37
2018-05-18T03:39:49.465Z,10.50
2018-05-18T03:42:16.942Z,10.60
2018-05-18T03:44:44.421Z,10.90
2018-05-18T03:47:12.663Z,11.50
2018-05-18T03:49:40.142Z,11.63
2018-05-18T03:52:07.643Z,10.80
2018-05-18T03:54:35.118Z,11.03
2018-05-18T03:57:02.594Z,10.43
2018-05-18T03:59:30.060Z,10.87
2018-05-18T04:02:09.456Z,10.93
2018-05-18T04:04:49.516Z,10.50
2018-05-18T04:07:28.876Z,10.97
2018-05-18T04:09:56.363Z,11.40
2018-05-18T04:12:23.834Z,11.47
2018-05-18T04:14:51.322Z,11.90
2018-05-18T04:17:18.793Z,12.33
2018-05-18T04:19:47.061Z,12.17
2018-05-18T04:22:14.522Z,12.10
2018-05-18T04:24:41.997Z,11.27
2018-05-18T04:27:09.497Z,10.90
2018-05-18T04:29:36.963Z,11.80
2018-05-18T04:32:04.439Z,11.67
2018-05-18T04:34:31.901Z,11.00
2018-05-18T04:36:59.385Z,11.80
2018-05-18T04:39:26.893Z,11.63
2018-05-18T04:41:55.130Z,11.40
2018-05-18T04:44:22.607Z,12.20
2018-05-18T04:46:50.082Z,12.33
2018-05-18T04:49:17.565Z,13.00
2018-05-18T04:51:45.827Z,12.77
2018-05-18T04:54:13.298Z,12.47
2018-05-18T04:56:40.778Z,12.97
2018-05-18T04:59:09.017Z,13.03
2018-05-18T05:01:36.501Z,13.43
2018-05-18T05:04:04.006Z,12.43
2018-05-18T05:06:31.478Z,12.07
2018-05-18T05:08:58.941Z,12.50
2018-05-18T05:11:26.430Z,12.27
2018-05-18T05:13:53.905Z,13.10
2018-05-18T05:16:21.407Z,11.20
2018-05-18T05:18:49.667Z,10.73
2018-05-18T05:21:17.149Z,11.80
2018-05-18T05:23:45.401Z,12.73
2018-05-18T05:26:12.877Z,13.10
2018-05-18T05:28:40.371Z,15.40
2018-05-18T05:31:07.850Z,14.90
2018-05-18T05:33:35.324Z,15.30
2018-05-18T05:36:02.800Z,14.00
2018-05-18T05:38:30.263Z,15.63
2018-05-18T05:40:57.767Z,16.30
2018-05-18T05:43:25.235Z,15.77
2018-05-18T05:45:53.483Z,15.13
2018-05-18T05:48:20.947Z,16.50
2018-05-18T05:50:49.181Z,16.90
2018-05-18T05:53:16.675Z,16.90
2018-05-18T05:55:44.154Z,17.13
2018-05-18T05:58:11.649Z,16.27
2018-05-18T06:00:39.897Z,17.50
2018-05-18T06:03:07.376Z,16.07
2018-05-18T06:05:34.871Z,17.37
2018-05-18T06:08:03.116Z,17.67
2018-05-18T06:10:30.588Z,17.40
2018-05-18T06:12:58.067Z,17.37
2018-05-18T06:15:26.321Z,17.30
2018-05-18T06:17:53.827Z,18.07
2018-05-18T06:20:22.075Z,17.17
2018-05-18T06:22:49.550Z,18.13
2018-05-18T06:25:17.034Z,17.90
2018-05-18T06:27:45.277Z,16.53
2018-05-18T06:30:12.775Z,17.83
2018-05-18T06:32:41.019Z,17.63
2018-05-18T06:35:08.629Z,17.30
2018-05-18T06:37:36.763Z,19.67
2018-05-18T06:40:04.255Z,18.00
2018-05-18T06:42:31.743Z,17.40
2018-05-18T06:44:59.222Z,17.63
2018-05-18T06:47:26.698Z,17.07
2018-05-18T06:49:54.166Z,16.57
2018-05-18T06:52:21.646Z,16.13
2018-05-18T06:54:49.147Z,18.83
2018-05-18T06:57:17.382Z,18.87
2018-05-18T06:59:44.890Z,18.23
2018-05-18T07:02:13.133Z,19.07
2018-05-18T07:04:40.607Z,18.23
2018-05-18T07:07:08.071Z,21.67
2018-05-18T07:09:35.542Z,22.33
2018-05-18T07:12:03.033Z,21.90
2018-05-18T07:14:31.271Z,22.17
2018-05-18T07:16:58.761Z,23.90
2018-05-18T07:19:26.238Z,23.20
2018-05-18T07:21:54.503Z,23.00
2018-05-18T07:24:21.973Z,23.07
2018-05-18T07:26:49.451Z,23.03
2018-05-18T07:29:17.686Z,23.97
2018-05-18T07:31:45.172Z,27.00
2018-05-18T07:34:12.648Z,24.00
2018-05-18T07:36:40.109Z,23.17
2018-05-18T07:39:07.608Z,25.73
2018-05-18T07:41:35.082Z,24.17
2018-05-18T07:44:02.570Z,23.53
2018-05-18T07:46:30.034Z,22.57
2018-05-18T07:48:57.512Z,24.80
2018-05-18T07:51:24.986Z,24.23
2018-05-18T07:53:52.450Z,23.77
2018-05-18T07:56:19.933Z,23.53
2018-05-18T07:58:48.171Z,24.60
2018-05-18T08:01:15.662Z,22.67
2018-05-18T08:03:43.131Z,22.77
2018-05-18T08:06:10.617Z,23.17
2018-05-18T08:08:38.095Z,23.40
2018-05-18T08:11:05.581Z,23.30
2018-05-18T08:13:33.037Z,25.07
2018-05-18T08:16:00.521Z,25.07
2018-05-18T08:18:28.004Z,24.90
2018-05-18T08:20:55.488Z,90.50
2018-05-18T08:23:35.689Z,59.00
2018-05-18T08:26:03.166Z,44.17
2018-05-18T08:28:42.464Z,25.10
2018-05-18T08:31:09.948Z,24.40
2018-05-18T08:33:37.440Z,25.03
2018-05-18T08:36:04.912Z,25.67
2018-05-18T08:38:32.406Z,23.90
2018-05-18T08:40:59.873Z,23.40
2018-05-18T08:43:27.348Z,24.13
2018-05-18T08:45:54.824Z,23.83
2018-05-18T08:48:22.296Z,23.03
2018-05-18T08:50:49.786Z,21.70
2018-05-18T08:53:17.277Z,23.40
2018-05-18T08:55:45.538Z,23.43
2018-05-18T08:58:13.006Z,23.27
2018-05-18T09:00:40.510Z,22.10
2018-05-18T09:03:07.982Z,23.23
2018-05-18T09:05:35.463Z,22.50
2018-05-18T09:08:02.935Z,22.73
2018-05-18T09:10:30.412Z,22.80
2018-05-18T09:12:57.881Z,22.93
2018-05-18T09:15:25.348Z,21.87
2018-05-18T09:17:52.852Z,21.87
2018-05-18T09:20:20.328Z,21.60
2018-05-18T09:22:47.813Z,20.93
2018-05-18T09:25:15.288Z,21.37
2018-05-18T09:27:42.760Z,22.77
2018-05-18T09:30:10.225Z,21.50
2018-05-18T09:32:37.707Z,21.03
2018-05-18T09:35:05.196Z,21.43
2018-05-18T09:37:32.668Z,21.03
2018-05-18T09:40:00.138Z,22.03
2018-05-18T09:42:27.622Z,22.13
2018-05-18T09:44:55.099Z,21.80
2018-05-18T09:47:22.602Z,21.53
2018-05-18T09:49:50.846Z,22.40
2018-05-18T09:52:18.328Z,20.90
2018-05-18T09:54:45.935Z,19.27
2018-05-18T09:57:14.046Z,21.07
2018-05-18T09:59:41.528Z,20.80
2018-05-18T10:02:08.997Z,20.37
2018-05-18T10:04:36.494Z,20.87
2018-05-18T10:07:04.051Z,33.03
2018-05-18T10:09:31.444Z,22.73
2018-05-18T10:11:58.912Z,22.30
2018-05-18T10:14:26.382Z,20.73
2018-05-18T10:16:53.854Z,19.03
2018-05-18T10:19:21.320Z,19.70
2018-05-18T10:21:48.806Z,18.53
2018-05-18T10:24:16.284Z,19.97
2018-05-18T10:26:43.754Z,19.27
2018-05-18T10:29:12.008Z,20.73
2018-05-18T10:31:39.484Z,19.90
2018-05-18T10:34:06.952Z,19.40
2018-05-18T10:36:34.435Z,17.87
2018-05-18T10:39:02.681Z,18.07
2018-05-18T10:41:30.160Z,17.80
2018-05-18T10:43:57.632Z,17.30
2018-05-18T10:46:25.867Z,17.90
2018-05-18T10:48:53.364Z,18.10
2018-05-18T10:51:20.844Z,16.87
2018-05-18T10:53:49.086Z,14.97
2018-05-18T10:56:16.560Z,17.97
2018-05-18T10:58:44.028Z,17.37
2018-05-18T11:01:11.494Z,16.90
2018-05-18T11:03:38.978Z,17.80
2018-05-18T11:06:06.456Z,17.57
2018-05-18T11:08:34.694Z,16.17
2018-05-18T11:11:02.171Z,15.73
2018-05-18T11:13:29.640Z,15.20
2018-05-18T11:15:57.098Z,17.20
2018-05-18T11:18:24.575Z,16.53
2018-05-18T11:20:52.810Z,17.63
2018-05-18T11:23:20.298Z,16.60
2018-05-18T11:25:47.772Z,19.10
2018-05-18T11:28:15.242Z,15.53
2018-05-18T11:30:42.720Z,13.93
2018-05-18T11:33:10.980Z,15.60
2018-05-18T11:35:38.437Z,14.93
2018-05-18T11:38:05.910Z,15.70
2018-05-18T11:40:33.388Z,17.93
2018-05-18T11:43:01.610Z,18.50
2018-05-18T11:45:29.125Z,16.83
2018-05-18T11:47:56.602Z,16.47
2018-05-18T11:50:24.060Z,15.63
2018-05-18T11:52:52.294Z,23.13
2018-05-18T11:55:19.775Z,18.43
2018-05-18T11:57:47.256Z,16.37
2018-05-18T12:00:14.723Z,15.47
2018-05-18T12:02:42.192Z,16.47
2018-05-18T12:05:10.440Z,15.83
2018-05-18T12:07:37.934Z,16.00
2018-05-18T12:10:05.400Z,13.93
2018-05-18T12:12:33.639Z,23.40
2018-05-18T12:15:01.111Z,17.57
2018-05-18T12:17:28.644Z,18.90
2018-05-18T12:19:56.133Z,14.83
2018-05-18T12:22:23.602Z,14.70
2018-05-18T12:24:51.283Z,13.90
2018-05-18T12:27:18.548Z,15.27
2018-05-18T12:29:46.025Z,17.33
2018-05-18T12:32:13.521Z,16.57
2018-05-18T12:34:41.007Z,16.37
2018-05-18T12:37:08.505Z,16.63
2018-05-18T12:39:35.985Z,18.03
2018-05-18T12:42:03.459Z,17.23
2018-05-18T12:44:31.716Z,22.07
2018-05-18T12:46:59.193Z,18.53
2018-05-18T12:49:26.677Z,17.30
2018-05-18T12:51:54.157Z,19.83
2018-05-18T12:54:21.635Z,17.10
2018-05-18T12:56:49.105Z,14.83
2018-05-18T12:59:16.597Z,13.13
2018-05-18T13:01:44.071Z,15.53
2018-05-18T13:04:11.537Z,62.00
2018-05-18T13:06:39.783Z,21.27
2018-05-18T13:09:07.299Z,24.60
2018-05-18T13:11:35.540Z,16.27
2018-05-18T13:14:03.024Z,16.97
2018-05-18T13:16:30.503Z,17.17
2018-05-18T13:18:58.743Z,25.00
2018-05-18T13:21:26.267Z,24.73
2018-05-18T13:23:53.745Z,24.37
2018-05-18T13:26:21.228Z,28.10
2018-05-18T13:28:48.713Z,17.67
2018-05-18T13:31:16.199Z,17.80
2018-05-18T13:33:44.465Z,16.60
2018-05-18T13:36:11.949Z,17.13
2018-05-18T13:38:40.238Z,16.97
2018-05-18T13:41:07.675Z,16.13
2018-05-18T13:43:35.179Z,15.77
2018-05-18T13:46:02.675Z,18.77
2018-05-18T13:48:30.172Z,18.97
2018-05-18T13:50:57.637Z,18.73
2018-05-18T13:53:25.123Z,16.83
2018-05-18T13:55:53.385Z,15.33
2018-05-18T13:58:21.653Z,16.43
2018-05-18T14:00:49.131Z,15.07
2018-05-18T14:03:16.601Z,15.77
2018-05-18T14:05:44.837Z,16.53
2018-05-18T14:08:12.323Z,15.77
2018-05-18T14:10:39.811Z,16.70
2018-05-18T14:13:08.060Z,15.27
2018-05-18T14:15:36.289Z,15.73
2018-05-18T14:18:04.527Z,16.23
2018-05-18T14:20:31.995Z,16.07
2018-05-18T14:22:59.485Z,16.03
2018-05-18T14:25:27.725Z,14.60
2018-05-18T14:27:55.199Z,22.33
2018-05-18T14:30:22.665Z,22.37
2018-05-18T14:32:50.143Z,15.30
2018-05-18T14:35:17.636Z,16.63
2018-05-18T14:37:45.905Z,17.30
2018-05-18T14:40:13.365Z,14.67
2018-05-18T14:42:40.841Z,12.77
2018-05-18T14:45:09.090Z,14.43
2018-05-18T14:47:36.595Z,26.37
2018-05-18T14:50:04.073Z,13.30
2018-05-18T14:52:31.538Z,14.13
2018-05-18T14:54:59.013Z,13.67
2018-05-18T14:57:27.342Z,14.33
2018-05-18T14:59:54.948Z,13.90
2018-05-18T15:02:22.420Z,13.30
2018-05-18T15:04:49.896Z,13.03
2018-05-18T15:07:17.373Z,12.97
2018-05-18T15:09:45.624Z,12.50
2018-05-18T15:12:13.114Z,12.93
2018-05-18T15:14:40.592Z,10.93
2018-05-18T15:17:08.197Z,11.70
2018-05-18T15:19:35.549Z,12.20
2018-05-18T15:22:03.789Z,11.33
2018-05-18T15:24:31.284Z,12.97
2018-05-18T15:26:59.527Z,11.63
2018-05-18T15:29:27.767Z,11.80
2018-05-18T15:31:56.017Z,10.93
2018-05-18T15:34:23.485Z,11.20
2018-05-18T15:36:50.965Z,9.83
2018-05-18T15:39:19.203Z,10.33
2018-05-18T15:41:46.679Z,10.30
2018-05-18T15:44:14.147Z,9.03
2018-05-18T15:46:41.616Z,9.97
2018-05-18T15:49:09.100Z,9.27
2018-05-18T15:51:37.341Z,9.13
2018-05-18T15:54:04.822Z,8.63
2018-05-18T15:56:32.305Z,8.77
2018-05-18T15:58:59.768Z,8.60
2018-05-18T16:01:28.035Z,8.30
2018-05-18T16:03:55.510Z,7.53
2018-05-18T16:06:23.754Z,8.00
2018-05-18T16:08:51.230Z,7.67
2018-05-18T16:11:18.710Z,8.30
2018-05-18T16:13:46.198Z,7.17
2018-05-18T16:16:14.503Z,6.83
2018-05-18T16:18:41.968Z,7.00
2018-05-18T16:21:09.444Z,7.57
2018-05-18T16:23:36.919Z,7.40
2018-05-18T16:26:04.400Z,7.83
2018-05-18T16:28:31.873Z,7.33
2018-05-18T16:30:59.360Z,7.93
2018-05-18T16:33:27.595Z,7.23
2018-05-18T16:35:55.066Z,7.23
2018-05-18T16:38:22.715Z,7.60
2018-05-18T16:40:50.271Z,6.90
2018-05-18T16:43:17.916Z,7.67
2018-05-18T16:45:45.420Z,7.47
2018-05-18T16:48:12.886Z,7.90
2018-05-18T16:50:40.373Z,7.70
2018-05-18T16:53:07.840Z,7.73
2018-05-18T16:55:35.309Z,8.30
2018-05-18T16:58:02.848Z,8.53
2018-05-18T17:00:31.029Z,9.23
2018-05-18T17:02:58.538Z,8.77
2018-05-18T17:05:26.774Z,8.60
2018-05-18T17:07:54.258Z,8.73
2018-05-18T17:10:21.740Z,9.37
2018-05-18T17:12:49.213Z,9.57
2018-05-18T17:15:17.462Z,9.53
2018-05-18T17:17:44.937Z,10.20
2018-05-18T17:20:12.414Z,9.93
2018-05-18T17:22:40.647Z,9.90
2018-05-18T17:25:08.138Z,10.10
2018-05-18T17:27:35.624Z,10.27
2018-05-18T17:30:03.864Z,10.67
2018-05-18T17:32:31.330Z,10.60
2018-05-18T17:34:58.818Z,10.77
2018-05-18T17:37:26.296Z,10.13
2018-05-18T17:39:54.578Z,10.30
2018-05-18T17:42:22.922Z,10.50
2018-05-18T17:44:51.069Z,10.93
2018-05-18T17:47:18.550Z,9.67
2018-05-18T17:49:46.033Z,10.20
2018-05-18T17:52:13.527Z,10.93
2018-05-18T17:54:41.001Z,10.53
2018-05-18T17:57:09.230Z,10.13
2018-05-18T17:59:36.694Z,10.63
2018-05-18T18:02:04.162Z,10.50
2018-05-18T18:04:31.666Z,10.20
2018-05-18T18:06:59.903Z,9.77
2018-05-18T18:09:27.376Z,9.23
2018-05-18T18:11:54.858Z,10.03
2018-05-18T18:14:22.329Z,10.10
2018-05-18T18:16:49.827Z,10.10
2018-05-18T18:19:17.308Z,10.77
2018-05-18T18:21:44.862Z,11.60
2018-05-18T18:24:12.278Z,13.03
2018-05-18T18:26:39.754Z,12.43
2018-05-18T18:29:07.243Z,13.43
2018-05-18T18:31:34.720Z,12.87
2018-05-18T18:34:02.207Z,12.93
2018-05-18T18:36:29.676Z,14.73
2018-05-18T18:38:57.144Z,14.30
2018-05-18T18:41:24.641Z,15.57
2018-05-18T18:43:52.882Z,15.83
2018-05-18T18:46:21.125Z,15.53
2018-05-18T18:48:48.600Z,16.17
2018-05-18T18:51:16.088Z,14.80
2018-05-18T18:53:43.604Z,15.37
2018-05-18T18:56:11.851Z,30.70
2018-05-18T18:58:39.358Z,16.17
2018-05-18T19:01:06.847Z,16.63
2018-05-18T19:03:34.334Z,16.20
2018-05-18T19:06:01.828Z,17.17
2018-05-18T19:08:29.376Z,17.33
2018-05-18T19:10:57.576Z,16.43
2018-05-18T19:13:25.052Z,17.07
2018-05-18T19:15:53.300Z,16.80
2018-05-18T19:18:20.798Z,16.77
2018-05-18T19:20:49.060Z,17.70
2018-05-18T19:23:16.534Z,18.53
2018-05-18T19:25:44.770Z,17.60
2018-05-18T19:28:12.250Z,17.40
2018-05-18T19:30:39.743Z,17.93
2018-05-18T19:33:07.992Z,17.97
2018-05-18T19:35:35.471Z,19.43
2018-05-18T19:38:02.945Z,17.57
2018-05-18T19:40:30.430Z,18.60
2018-05-18T19:42:58.704Z,18.67
2018-05-18T19:45:26.946Z,19.80
2018-05-18T19:47:54.448Z,18.10
2018-05-18T19:50:22.702Z,18.57
2018-05-18T19:52:50.206Z,20.40
2018-05-18T19:55:18.477Z,19.67
2018-05-18T19:57:46.728Z,19.33
2018-05-18T20:00:14.219Z,20.10
2018-05-18T20:02:42.486Z,21.30
2018-05-18T20:05:10.003Z,21.13
2018-05-18T20:07:37.472Z,20.87
2018-05-18T20:10:04.955Z,21.37
2018-05-18T20:12:32.458Z,22.60
2018-05-18T20:15:00.698Z,21.40
2018-05-18T20:17:28.176Z,23.17
2018-05-18T20:19:55.650Z,22.87
2018-05-18T20:22:23.133Z,21.77
2018-05-18T20:24:51.389Z,22.57
2018-05-18T20:27:18.890Z,23.53
2018-05-18T20:29:47.133Z,22.97
2018-05-18T20:32:14.618Z,22.80
2018-05-18T20:34:42.864Z,23.87
2018-05-18T20:37:10.346Z,23.10
2018-05-18T20:39:37.833Z,23.30
2018-05-18T20:42:06.071Z,22.53
2018-05-18T20:44:33.552Z,24.00
2018-05-18T20:47:01.035Z,23.00
2018-05-18T20:49:29.307Z,24.63
2018-05-18T20:51:56.770Z,24.20
2018-05-18T20:54:24.243Z,24.07
2018-05-18T20:56:52.499Z,23.60
2018-05-18T20:59:19.977Z,24.17
2018-05-18T21:01:47.472Z,23.40
2018-05-18T21:04:14.955Z,23.10
2018-05-18T21:06:42.433Z,24.57
2018-05-18T21:09:09.915Z,24.30
2018-05-18T21:11:38.170Z,23.93
2018-05-18T21:14:05.668Z,24.13
2018-05-18T21:16:33.144Z,23.53
2018-05-18T21:19:00.636Z,22.23
2018-05-18T21:21:28.107Z,21.97
2018-05-18T21:23:55.584Z,22.23
2018-05-18T21:26:23.081Z,21.10
2018-05-18T21:28:50.564Z,22.47
2018-05-18T21:31:18.035Z,22.27
2018-05-18T21:33:46.307Z,22.23
2018-05-18T21:36:13.799Z,22.17
2018-05-18T21:38:42.058Z,21.87
2018-05-18T21:41:09.530Z,20.03
2018-05-18T21:43:37.769Z,19.90
2018-05-18T21:46:05.257Z,19.60
2018-05-18T21:48:32.733Z,21.50
2018-05-18T21:51:00.245Z,19.80
2018-05-18T21:53:27.721Z,20.30
2018-05-18T21:55:55.195Z,20.50
2018-05-18T21:58:22.667Z,21.70
2018-05-18T22:00:50.154Z,21.37
2018-05-18T22:03:17.661Z,21.77
2018-05-18T22:05:45.135Z,21.63
2018-05-18T22:08:12.611Z,23.77
2018-05-18T22:10:40.100Z,21.40
2018-05-18T22:13:07.577Z,22.90
2018-05-18T22:15:35.097Z,22.87
2018-05-18T22:18:02.569Z,22.00
2018-05-18T22:20:30.047Z,22.63
2018-05-18T22:22:57.528Z,23.00
2018-05-18T22:25:25.011Z,21.70
2018-05-18T22:27:53.273Z,22.03
2018-05-18T22:30:20.769Z,21.00
2018-05-18T22:32:48.241Z,21.47
2018-05-18T22:35:15.723Z,18.27
2018-05-18T22:37:43.202Z,18.23
2018-05-18T22:40:10.685Z,18.73
2018-05-18T22:42:38.163Z,18.50
2018-05-18T22:45:06.405Z,18.03
2018-05-18T22:47:33.880Z,18.00
2018-05-18T22:50:01.357Z,17.03
2018-05-18T22:52:28.850Z,16.30
2018-05-18T22:54:57.089Z,16.90
2018-05-18T22:57:25.341Z,16.87
2018-05-18T22:59:52.815Z,15.50
2018-05-18T23:02:20.299Z,14.50
2018-05-18T23:04:47.810Z,13.43
2018-05-18T23:07:15.287Z,13.27
2018-05-18T23:09:42.765Z,13.10
2018-05-18T23:12:10.243Z,12.07
2018-05-18T23:14:37.711Z,12.00
2018-05-18T23:17:05.201Z,12.53
2018-05-18T23:19:32.681Z,13.63
2018-05-18T23:22:00.910Z,11.47
2018-05-18T23:24:29.147Z,11.77
2018-05-18T23:26:57.378Z,11.00
2018-05-18T23:29:24.884Z,12.17
2018-05-18T23:31:53.210Z,10.87
2018-05-18T23:34:20.609Z,11.20
2018-05-18T23:36:48.095Z,10.97
2018-05-18T23:39:16.335Z,10.80
2018-05-18T23:41:43.829Z,10.83
2018-05-18T23:44:11.305Z,9.33
2018-05-18T23:46:39.545Z,8.63
2018-05-18T23:49:07.019Z,9.70
2018-05-18T23:51:34.478Z,9.77
2018-05-18T23:54:01.969Z,10.20
2018-05-18T23:56:29.448Z,11.60
2018-05-18T23:58:57.678Z,10.50
